PWSweather.com
Personal Weather Stations
Station Observations
WISCHPK61
Green Bay Schmitt Park, Green Bay, WI 54311

Green Bay Schmitt ParkGreen Bay, WI 54311

Lat: 44.514277, Lon: -87.935067

Elevation: 735

Station Type: Acu Rite Pro Weather Center model 02032C

http://greenbayweathercam.com

High Low Average
Temperature 50.7°F10.4°C 32.4°F0.2°C 41.0°F5.0°C
Dew Point 50.4°F10.2°C 26.1°F-3.3°C 39.8°F4.3°C
Winds Calm Calm Calm Calm Calm SSWCalm SSW
Wind Gusts -- -- --
Humidity 99% 76% 96%
Pressure 29.50 in999.0 mb 29.32 in992.9 mb -
Precipitation 0.01 in0.3 mm - -
Hour Temp Dew Point Humidity Winds Wind Gusts Pressure Precip Precip Rate Daily Precip Total
12:00 AM 32.7°F0.4°C 32.5°F0.3°C 99% Calm Calm -- 29.52 in999.7 mb - 0.00 in0.0 mm 0.00 in0.0 mm
01:00 AM 32.5°F0.3°C 26.1°F-3.3°C 77% Calm Calm -- 29.50 in999.0 mb - 0.00 in0.0 mm 0.00 in0.0 mm
02:00 AM 32.4°F0.2°C 31.1°F-0.5°C 95% Calm Calm -- 29.47 in998.0 mb - 0.00 in0.0 mm 0.00 in0.0 mm
03:00 AM 32.7°F0.4°C 32.5°F0.3°C 99% Calm Calm -- 29.45 in997.3 mb - 0.00 in0.0 mm 0.00 in0.0 mm
04:00 AM 32.9°F0.5°C 31.1°F-0.5°C 93% Calm Calm -- 29.43 in996.6 mb - 0.00 in0.0 mm 0.00 in0.0 mm
05:00 AM 33.8°F1.0°C 33.5°F0.8°C 99% Calm Calm -- 29.42 in996.3 mb - 0.00 in0.0 mm 0.00 in0.0 mm
06:00 AM 34.2°F1.2°C 33.9°F1.1°C 99% Calm Calm -- 29.41 in995.9 mb - 0.01 in0.3 mm 0.01 in0.3 mm
07:00 AM 34.5°F1.4°C 34.2°F1.2°C 99% Calm Calm -- 29.40 in995.6 mb - 0.00 in0.0 mm 0.01 in0.3 mm
08:00 AM 35.1°F1.7°C 34.8°F1.6°C 99% Calm Calm -- 29.40 in995.6 mb - 0.00 in0.0 mm 0.01 in0.3 mm
09:00 AM 35.8°F2.1°C 35.5°F1.9°C 99% Calm Calm -- 29.40 in995.6 mb - 0.00 in0.0 mm 0.01 in0.3 mm
10:00 AM 37.2°F2.9°C 36.9°F2.7°C 99% Calm Calm -- 29.38 in994.9 mb - 0.00 in0.0 mm 0.01 in0.3 mm
11:00 AM 39.7°F4.3°C 39.4°F4.1°C 99% Calm Calm -- 29.38 in994.9 mb - 0.00 in0.0 mm 0.01 in0.3 mm
12:00 PM 42.8°F6.0°C 42.5°F5.8°C 99% Calm Calm -- 29.38 in994.9 mb - 0.00 in0.0 mm 0.01 in0.3 mm
01:00 PM 49.5°F9.7°C 49.2°F9.6°C 99% Calm Calm -- 29.36 in994.2 mb - 0.00 in0.0 mm 0.01 in0.3 mm
02:00 PM 50.7°F10.4°C 50.4°F10.2°C 99% Calm Calm -- 29.36 in994.2 mb - 0.00 in0.0 mm 0.01 in0.3 mm
03:00 PM 48.2°F9.0°C 47.9°F8.8°C 99% Calm Calm -- 29.34 in993.6 mb - 0.00 in0.0 mm 0.01 in0.3 mm
04:00 PM 48.2°F9.0°C 42.7°F5.9°C 81% Calm Calm -- 29.33 in993.2 mb - 0.00 in0.0 mm 0.01 in0.3 mm
05:00 PM 49.7°F9.8°C 49.4°F9.7°C 99% Calm Calm -- 29.32 in992.9 mb - 0.00 in0.0 mm 0.01 in0.3 mm
06:00 PM 50.0°F10.0°C 42.7°F5.9°C 76% Calm Calm -- 29.32 in992.9 mb - 0.00 in0.0 mm 0.01 in0.3 mm
07:00 PM 47.8°F8.8°C 47.5°F8.6°C 99% Calm Calm -- 29.33 in993.2 mb - 0.00 in0.0 mm 0.01 in0.3 mm
08:00 PM 45.0°F7.2°C 44.7°F7.1°C 99% Calm Calm -- 29.34 in993.6 mb - 0.00 in0.0 mm 0.01 in0.3 mm
09:00 PM 43.4°F6.3°C 43.1°F6.2°C 99% Calm Calm -- 29.36 in994.2 mb - 0.00 in0.0 mm 0.01 in0.3 mm
10:00 PM 41.7°F5.4°C 41.4°F5.2°C 99% Calm Calm -- 29.38 in994.9 mb - 0.00 in0.0 mm 0.01 in0.3 mm
11:00 PM 42.4°F5.8°C 42.1°F5.6°C 99% Calm Calm -- 29.37 in994.6 mb - 0.00 in0.0 mm 0.01 in0.3 mm